createdAt,value
2022-09-15T00:01:25.634Z,13.40
2022-09-15T00:03:54.216Z,13.36
2022-09-15T00:06:22.326Z,13.41
2022-09-15T00:08:51.784Z,13.41
2022-09-15T00:11:22.511Z,13.36
2022-09-15T00:13:50.995Z,13.26
2022-09-15T00:16:20.707Z,13.20
2022-09-15T00:18:49.671Z,13.17
2022-09-15T00:21:19.911Z,13.21
2022-09-15T00:23:49.658Z,13.30
2022-09-15T00:26:21.888Z,13.21
2022-09-15T00:28:50.637Z,13.16
2022-09-15T00:31:21.674Z,13.10
2022-09-15T00:33:51.045Z,13.06
2022-09-15T00:36:19.763Z,13.07
2022-09-15T00:38:47.870Z,13.03
2022-09-15T00:41:18.442Z,13.09
2022-09-15T00:43:52.531Z,13.09
2022-09-15T00:46:24.681Z,13.13
2022-09-15T00:49:03.112Z,13.16
2022-09-15T00:51:37.162Z,13.21
2022-09-15T00:54:10.650Z,13.24
2022-09-15T00:56:41.787Z,13.30
2022-09-15T00:59:15.981Z,13.23
2022-09-15T01:01:46.025Z,13.17
2022-09-15T01:04:15.769Z,13.07
2022-09-15T01:06:50.544Z,13.07
2022-09-15T01:09:23.513Z,13.00
2022-09-15T01:11:52.035Z,12.95
2022-09-15T01:14:21.313Z,12.85
2022-09-15T01:17:00.605Z,12.79
2022-09-15T01:20:01.420Z,12.68
2022-09-15T01:22:37.771Z,12.60
2022-09-15T01:25:11.279Z,12.52
2022-09-15T01:28:07.809Z,12.47
2022-09-15T01:30:40.711Z,12.43
2022-09-15T01:33:20.087Z,12.40
2022-09-15T01:35:58.207Z,12.38
2022-09-15T01:38:37.315Z,12.36
2022-09-15T01:41:10.623Z,12.38
2022-09-15T01:43:45.461Z,12.33
2022-09-15T01:46:16.348Z,12.40
2022-09-15T01:48:44.842Z,12.40
2022-09-15T01:51:13.191Z,12.38
2022-09-15T01:53:42.256Z,12.37
2022-09-15T01:56:12.011Z,12.38
2022-09-15T01:58:42.239Z,12.29
2022-09-15T02:01:21.054Z,12.22
2022-09-15T02:03:55.035Z,12.22
2022-09-15T02:06:36.602Z,12.20
2022-09-15T02:09:12.836Z,12.26
2022-09-15T02:11:52.234Z,12.19
2022-09-15T02:14:36.840Z,12.20
2022-09-15T02:17:07.120Z,12.17
2022-09-15T02:19:41.884Z,12.23
2022-09-15T02:22:16.058Z,12.19
2022-09-15T02:24:49.669Z,12.13
2022-09-15T02:27:23.064Z,12.20
2022-09-15T02:29:53.657Z,12.10
2022-09-15T02:32:27.514Z,12.12
2022-09-15T02:34:58.520Z,12.15
2022-09-15T02:37:27.833Z,12.05
2022-09-15T02:39:58.229Z,12.15
2022-09-15T02:42:26.704Z,12.09
2022-09-15T02:44:54.793Z,12.02
2022-09-15T02:47:25.063Z,12.03
2022-09-15T02:49:53.978Z,12.00
2022-09-15T02:52:21.926Z,12.00
2022-09-15T02:54:50.431Z,12.09
2022-09-15T02:57:18.831Z,12.00
2022-09-15T03:00:05.648Z,11.91
2022-09-15T03:02:35.281Z,12.05
2022-09-15T03:05:03.157Z,12.08
2022-09-15T03:07:31.991Z,11.99
2022-09-15T03:10:00.104Z,12.10
2022-09-15T03:12:28.085Z,12.17
2022-09-15T03:14:55.964Z,12.30
2022-09-15T03:17:24.054Z,12.32
2022-09-15T03:19:53.308Z,12.34
2022-09-15T03:22:21.472Z,12.43
2022-09-15T03:24:49.415Z,12.48
2022-09-15T03:27:17.796Z,12.48
2022-09-15T03:29:45.677Z,12.54
2022-09-15T03:32:13.978Z,12.65
2022-09-15T03:34:41.849Z,12.74
2022-09-15T03:37:11.633Z,12.74
2022-09-15T03:39:39.530Z,12.72
2022-09-15T03:42:07.620Z,12.72
2022-09-15T03:44:35.864Z,12.74
2022-09-15T03:47:04.560Z,12.77
2022-09-15T03:49:32.467Z,12.75
2022-09-15T03:52:00.580Z,12.79
2022-09-15T03:54:29.977Z,12.89
2022-09-15T03:56:57.955Z,12.91
2022-09-15T03:59:25.968Z,12.95
2022-09-15T04:01:54.010Z,12.95
2022-09-15T04:04:21.891Z,12.99
2022-09-15T04:06:49.973Z,12.95
2022-09-15T04:09:20.247Z,12.92
2022-09-15T04:11:49.794Z,12.81
2022-09-15T04:14:17.866Z,12.77
2022-09-15T04:16:47.422Z,12.82
2022-09-15T04:19:15.557Z,12.84
2022-09-15T04:21:45.696Z,12.82
2022-09-15T04:24:13.594Z,12.81
2022-09-15T04:26:41.554Z,12.84
2022-09-15T04:29:16.483Z,12.86
2022-09-15T04:31:44.981Z,12.86
2022-09-15T04:34:12.933Z,12.88
2022-09-15T04:36:40.871Z,12.95
2022-09-15T04:39:08.706Z,12.96
2022-09-15T04:41:36.809Z,12.99
2022-09-15T04:44:04.749Z,13.07
2022-09-15T04:46:34.382Z,13.05
2022-09-15T04:49:02.292Z,13.09
2022-09-15T04:51:30.999Z,13.07
2022-09-15T04:53:59.487Z,13.10
2022-09-15T04:56:28.756Z,13.12
2022-09-15T04:59:03.186Z,13.05
2022-09-15T05:01:36.106Z,13.02
2022-09-15T05:04:05.185Z,13.03
2022-09-15T05:06:34.739Z,13.03
2022-09-15T05:09:07.655Z,13.03
2022-09-15T05:11:38.508Z,13.07
2022-09-15T05:14:06.551Z,13.07
2022-09-15T05:16:36.327Z,13.07
2022-09-15T05:19:05.262Z,13.13
2022-09-15T05:21:33.686Z,13.12
2022-09-15T05:24:01.748Z,13.06
2022-09-15T05:26:31.945Z,13.05
2022-09-15T05:29:00.313Z,13.07
2022-09-15T05:31:31.716Z,13.09
2022-09-15T05:34:02.559Z,13.16
2022-09-15T05:36:31.216Z,13.23
2022-09-15T05:38:59.438Z,13.21
2022-09-15T05:41:28.523Z,13.28
2022-09-15T05:43:59.208Z,13.36
2022-09-15T05:46:29.107Z,13.33
2022-09-15T05:48:59.024Z,13.37
2022-09-15T05:51:30.144Z,13.47
2022-09-15T05:53:58.054Z,13.44
2022-09-15T05:56:25.886Z,13.51
2022-09-15T05:58:54.059Z,13.51
2022-09-15T06:01:24.507Z,13.54
2022-09-15T06:03:52.873Z,13.47
2022-09-15T06:06:21.906Z,13.44
2022-09-15T06:08:58.128Z,13.40
2022-09-15T06:11:28.685Z,13.37
2022-09-15T06:13:56.755Z,13.41
2022-09-15T06:16:26.682Z,13.36
2022-09-15T06:18:55.072Z,13.34
2022-09-15T06:21:24.436Z,13.37
2022-09-15T06:23:55.612Z,13.40
2022-09-15T06:26:24.354Z,13.40
2022-09-15T06:28:54.316Z,13.41
2022-09-15T06:31:23.400Z,13.50
2022-09-15T06:33:53.092Z,13.53
2022-09-15T06:36:22.593Z,13.47
2022-09-15T06:38:52.632Z,13.58
2022-09-15T06:41:22.727Z,13.65
2022-09-15T06:43:50.954Z,13.71
2022-09-15T06:46:21.108Z,13.74
2022-09-15T06:48:49.511Z,13.81
2022-09-15T06:51:20.569Z,13.81
2022-09-15T06:53:49.757Z,13.96
2022-09-15T06:56:19.414Z,13.99
2022-09-15T06:58:50.158Z,13.99
2022-09-15T07:01:23.971Z,13.92
2022-09-15T07:03:52.714Z,13.93
2022-09-15T07:06:21.438Z,13.85
2022-09-15T07:08:50.780Z,13.89
2022-09-15T07:11:19.430Z,13.89
2022-09-15T07:13:50.038Z,14.10
2022-09-15T07:16:18.959Z,14.18
2022-09-15T07:18:47.684Z,14.21
2022-09-15T07:21:17.599Z,14.40
2022-09-15T07:23:45.520Z,14.57
2022-09-15T07:26:15.619Z,14.45
2022-09-15T07:28:45.831Z,14.58
2022-09-15T07:31:17.486Z,14.71
2022-09-15T07:33:45.702Z,14.78
2022-09-15T07:36:14.041Z,14.85
2022-09-15T07:38:44.297Z,14.72
2022-09-15T07:41:13.889Z,15.04
2022-09-15T07:43:47.931Z,15.08
2022-09-15T07:46:20.366Z,15.20
2022-09-15T07:48:49.556Z,15.00
2022-09-15T07:51:19.311Z,15.02
2022-09-15T07:53:48.644Z,15.14
2022-09-15T07:56:18.733Z,15.19
2022-09-15T07:58:49.618Z,15.02
2022-09-15T08:01:20.408Z,15.26
2022-09-15T08:03:50.643Z,15.28
2022-09-15T08:06:18.942Z,14.96
2022-09-15T08:08:47.567Z,15.07
2022-09-15T08:11:19.001Z,15.38
2022-09-15T08:13:50.618Z,15.37
2022-09-15T08:16:20.355Z,15.37
2022-09-15T08:18:49.297Z,15.45
2022-09-15T08:21:20.377Z,15.37
2022-09-15T08:23:51.937Z,15.48
2022-09-15T08:26:20.571Z,15.44
2022-09-15T08:28:48.465Z,15.54
2022-09-15T08:31:16.679Z,15.55
2022-09-15T08:33:49.673Z,15.40
2022-09-15T08:36:17.860Z,15.57
2022-09-15T08:38:46.757Z,16.11
2022-09-15T08:41:19.514Z,16.41
2022-09-15T08:43:51.105Z,16.35
2022-09-15T08:46:22.516Z,16.42
2022-09-15T08:49:02.900Z,15.99
2022-09-15T08:51:35.951Z,16.10
2022-09-15T08:54:08.421Z,16.34
2022-09-15T08:56:37.874Z,16.16
2022-09-15T08:59:05.900Z,16.10
2022-09-15T09:01:57.445Z,16.14
2022-09-15T09:05:11.843Z,16.04
2022-09-15T09:08:00.335Z,15.97
2022-09-15T09:10:38.871Z,16.21
2022-09-15T09:13:17.918Z,16.31
2022-09-15T09:15:59.072Z,16.34
2022-09-15T09:18:50.655Z,16.06
2022-09-15T09:21:26.580Z,15.96
2022-09-15T09:24:02.385Z,16.13
2022-09-15T09:26:33.348Z,16.09
2022-09-15T09:29:03.050Z,16.13
2022-09-15T09:31:31.218Z,15.99
2022-09-15T09:34:06.324Z,16.41
2022-09-15T09:36:35.963Z,16.32
2022-09-15T09:39:04.477Z,16.61
2022-09-15T09:41:36.823Z,16.73
2022-09-15T09:44:07.729Z,17.02
2022-09-15T09:46:35.928Z,17.27
2022-09-15T09:49:12.598Z,17.06
2022-09-15T09:51:52.000Z,17.23
2022-09-15T09:54:22.491Z,17.24
2022-09-15T09:56:51.828Z,17.48
2022-09-15T09:59:41.880Z,17.63
2022-09-15T10:02:19.154Z,17.43
2022-09-15T10:04:48.832Z,17.15
2022-09-15T10:07:21.192Z,17.04
2022-09-15T10:09:53.066Z,16.93
2022-09-15T10:12:24.801Z,17.04
2022-09-15T10:14:56.377Z,17.08
2022-09-15T10:17:27.209Z,17.34
2022-09-15T10:19:57.062Z,17.56
2022-09-15T10:22:28.298Z,17.48
2022-09-15T10:24:58.127Z,17.87
2022-09-15T10:27:31.642Z,18.07
2022-09-15T10:30:18.708Z,18.11
2022-09-15T10:32:47.313Z,18.37
2022-09-15T10:35:16.765Z,18.34
2022-09-15T10:38:01.159Z,18.27
2022-09-15T10:40:34.695Z,18.34
2022-09-15T10:43:16.623Z,18.90
2022-09-15T10:45:49.703Z,18.69
2022-09-15T10:48:40.699Z,18.32
2022-09-15T10:51:19.378Z,18.28
2022-09-15T10:54:10.573Z,18.35
2022-09-15T10:56:42.603Z,18.53
2022-09-15T10:59:26.625Z,18.41
2022-09-15T11:02:10.651Z,17.96
2022-09-15T11:04:50.569Z,17.76
2022-09-15T11:07:29.859Z,18.08
2022-09-15T11:10:06.839Z,18.14
2022-09-15T11:12:49.103Z,17.84
2022-09-15T11:15:39.729Z,18.17
2022-09-15T11:18:23.206Z,18.60
2022-09-15T11:21:08.444Z,18.91
2022-09-15T11:23:41.059Z,18.66
2022-09-15T11:26:16.290Z,18.76
2022-09-15T11:28:49.113Z,18.67
2022-09-15T11:31:22.357Z,18.67
2022-09-15T11:33:56.616Z,18.37
2022-09-15T11:36:30.044Z,19.10
2022-09-15T11:39:05.014Z,18.81
2022-09-15T11:41:39.201Z,18.86
2022-09-15T11:44:19.513Z,19.31
2022-09-15T11:47:01.802Z,19.59
2022-09-15T11:49:36.169Z,18.90
2022-09-15T11:52:13.708Z,19.31
2022-09-15T11:54:47.689Z,19.53
2022-09-15T11:57:24.967Z,20.03
2022-09-15T11:59:58.993Z,19.49
2022-09-15T12:02:32.932Z,19.48
2022-09-15T12:05:09.162Z,19.04
2022-09-15T12:07:44.612Z,19.55
2022-09-15T12:10:16.353Z,20.05
2022-09-15T12:12:47.598Z,20.10
2022-09-15T12:15:18.988Z,20.69
2022-09-15T12:17:53.600Z,20.72
2022-09-15T12:20:26.707Z,20.91
2022-09-15T12:23:01.575Z,21.14
2022-09-15T12:25:34.844Z,21.04
2022-09-15T12:28:38.214Z,20.18
2022-09-15T12:31:15.877Z,20.26
2022-09-15T12:33:54.575Z,20.00
2022-09-15T12:36:41.114Z,20.79
2022-09-15T12:39:29.890Z,19.76
2022-09-15T12:42:06.482Z,19.78
2022-09-15T12:44:38.468Z,20.43
2022-09-15T12:47:18.511Z,20.14
2022-09-15T12:49:49.948Z,19.71
2022-09-15T12:52:20.495Z,19.74
2022-09-15T12:54:55.810Z,19.80
2022-09-15T12:57:28.438Z,20.26
2022-09-15T13:00:34.979Z,20.57
2022-09-15T13:03:06.195Z,19.98
2022-09-15T13:06:10.090Z,20.38
2022-09-15T13:08:47.764Z,20.22
2022-09-15T13:11:20.439Z,20.32
2022-09-15T13:13:52.879Z,20.26
2022-09-15T13:16:28.335Z,20.84
2022-09-15T13:19:08.616Z,22.23
2022-09-15T13:21:39.020Z,22.45
2022-09-15T13:24:13.701Z,24.28
2022-09-15T13:26:44.849Z,26.63
2022-09-15T13:29:16.370Z,25.18
2022-09-15T13:31:53.539Z,23.18
2022-09-15T13:35:04.124Z,20.83
2022-09-15T13:38:23.722Z,20.07
2022-09-15T13:41:33.272Z,20.18
2022-09-15T13:44:18.343Z,20.04
2022-09-15T13:46:57.690Z,19.48
2022-09-15T13:49:43.269Z,19.67
2022-09-15T13:52:32.354Z,19.60
2022-09-15T13:55:17.053Z,19.34
2022-09-15T14:00:48.212Z,20.21
2022-09-15T14:03:20.450Z,20.05
2022-09-15T14:05:50.114Z,20.15
2022-09-15T14:08:21.080Z,19.42
2022-09-15T14:10:54.682Z,19.04
2022-09-15T14:13:26.612Z,19.35
2022-09-15T14:15:59.631Z,19.18
2022-09-15T14:18:28.323Z,19.53
2022-09-15T14:21:03.068Z,18.77
2022-09-15T14:23:32.631Z,20.55
2022-09-15T14:26:02.554Z,20.08
2022-09-15T14:28:33.651Z,20.00
2022-09-15T14:31:02.808Z,19.74
2022-09-15T14:33:38.102Z,21.17
2022-09-15T14:36:21.493Z,22.33
2022-09-15T14:39:04.910Z,19.55
2022-09-15T14:41:33.833Z,19.12
2022-09-15T14:44:01.824Z,20.72
2022-09-15T14:46:37.845Z,20.10
2022-09-15T14:49:12.773Z,19.56
2022-09-15T14:51:43.689Z,19.10
2022-09-15T14:54:19.270Z,23.54
2022-09-15T14:56:49.501Z,24.56
2022-09-15T14:59:21.616Z,21.97
2022-09-15T15:01:56.712Z,20.07
2022-09-15T15:04:30.184Z,19.60
2022-09-15T15:07:05.551Z,18.87
2022-09-15T15:09:38.915Z,18.74
2022-09-15T15:12:20.824Z,18.55
2022-09-15T15:14:48.981Z,18.53
2022-09-15T15:17:32.846Z,18.59
2022-09-15T15:20:03.473Z,18.29
2022-09-15T15:22:33.105Z,18.32
2022-09-15T15:25:01.411Z,18.24
2022-09-15T15:27:44.907Z,18.20
2022-09-15T15:30:41.895Z,18.20
2022-09-15T15:33:21.262Z,18.14
2022-09-15T15:36:03.089Z,18.04
2022-09-15T15:38:35.741Z,18.10
2022-09-15T15:41:06.440Z,18.24
2022-09-15T15:43:35.000Z,18.34
2022-09-15T15:46:05.375Z,18.52
2022-09-15T15:48:37.953Z,18.83
2022-09-15T15:51:09.305Z,18.57
2022-09-15T15:53:40.068Z,19.04
2022-09-15T15:56:09.294Z,18.87
2022-09-15T15:58:37.195Z,18.39
2022-09-15T16:01:05.565Z,18.41
2022-09-15T16:03:33.591Z,18.08
2022-09-15T16:06:02.999Z,17.97
2022-09-15T16:08:34.160Z,17.80
2022-09-15T16:11:05.679Z,17.73
2022-09-15T16:13:33.966Z,17.62
2022-09-15T16:16:02.592Z,17.49
2022-09-15T16:18:31.280Z,17.35
2022-09-15T16:20:59.332Z,17.24
2022-09-15T16:23:27.437Z,17.24
2022-09-15T16:25:59.477Z,17.28
2022-09-15T16:28:29.791Z,18.14
2022-09-15T16:30:58.155Z,17.58
2022-09-15T16:33:26.641Z,17.48
2022-09-15T16:35:56.590Z,17.31
2022-09-15T16:38:25.821Z,17.41
2022-09-15T16:40:53.873Z,17.35
2022-09-15T16:43:23.191Z,17.20
2022-09-15T16:45:53.336Z,17.04
2022-09-15T16:48:21.661Z,16.83
2022-09-15T16:51:09.041Z,16.77
2022-09-15T16:53:40.774Z,16.62
2022-09-15T16:56:11.433Z,16.66
2022-09-15T16:58:39.954Z,16.49
2022-09-15T17:01:15.042Z,16.58
2022-09-15T17:03:43.371Z,16.62
2022-09-15T17:06:14.556Z,16.48
2022-09-15T17:08:42.717Z,16.34
2022-09-15T17:11:16.422Z,16.42
2022-09-15T17:13:46.680Z,16.35
2022-09-15T17:16:19.503Z,16.25
2022-09-15T17:18:48.134Z,16.18
2022-09-15T17:21:18.192Z,16.13
2022-09-15T17:23:49.356Z,16.07
2022-09-15T17:26:20.783Z,16.03
2022-09-15T17:28:49.087Z,16.04
2022-09-15T17:31:20.447Z,15.96
2022-09-15T17:33:49.539Z,15.96
2022-09-15T17:36:18.382Z,15.96
2022-09-15T17:38:48.930Z,15.79
2022-09-15T17:41:18.786Z,15.72
2022-09-15T17:43:47.009Z,15.65
2022-09-15T17:46:15.511Z,15.57
2022-09-15T17:48:44.848Z,15.61
2022-09-15T17:51:17.129Z,15.51
2022-09-15T17:53:46.932Z,15.47
2022-09-15T17:56:15.159Z,15.35
2022-09-15T17:58:43.182Z,15.35
2022-09-15T18:01:14.431Z,15.34
2022-09-15T18:03:45.716Z,15.35
2022-09-15T18:06:13.887Z,15.28
2022-09-15T18:08:41.850Z,15.28
2022-09-15T18:11:11.959Z,15.21
2022-09-15T18:13:39.891Z,15.14
2022-09-15T18:16:12.576Z,15.07
2022-09-15T18:18:41.070Z,15.03
2022-09-15T18:21:13.298Z,15.04
2022-09-15T18:23:42.407Z,15.02
2022-09-15T18:26:10.441Z,15.00
2022-09-15T18:28:38.513Z,14.93
2022-09-15T18:31:06.696Z,14.95
2022-09-15T18:33:34.817Z,14.90
2022-09-15T18:36:03.079Z,14.90
2022-09-15T18:38:32.705Z,14.82
2022-09-15T18:41:01.455Z,14.82
2022-09-15T18:43:30.993Z,14.76
2022-09-15T18:45:59.817Z,14.80
2022-09-15T18:48:28.348Z,14.69
2022-09-15T18:50:56.593Z,14.68
2022-09-15T18:53:25.183Z,14.61
2022-09-15T18:55:54.490Z,14.60
2022-09-15T18:58:24.121Z,14.61
2022-09-15T19:00:51.994Z,14.61
2022-09-15T19:03:20.602Z,14.57
2022-09-15T19:05:48.755Z,14.55
2022-09-15T19:08:16.961Z,14.60
2022-09-15T19:10:44.916Z,14.55
2022-09-15T19:13:17.074Z,14.55
2022-09-15T19:15:49.242Z,14.58
2022-09-15T19:18:19.814Z,14.64
2022-09-15T19:20:47.734Z,14.62
2022-09-15T19:23:16.224Z,14.58
2022-09-15T19:25:44.152Z,14.51
2022-09-15T19:28:15.134Z,14.64
2022-09-15T19:30:43.939Z,14.61
2022-09-15T19:33:12.048Z,14.54
2022-09-15T19:35:42.793Z,14.60
2022-09-15T19:38:10.855Z,14.57
2022-09-15T19:40:38.794Z,14.45
2022-09-15T19:43:06.795Z,14.40
2022-09-15T19:45:41.822Z,14.42
2022-09-15T19:48:10.052Z,14.34
2022-09-15T19:50:39.268Z,14.21
2022-09-15T19:53:07.344Z,14.08
2022-09-15T19:55:35.398Z,14.10
2022-09-15T19:58:03.505Z,14.03
2022-09-15T20:00:31.587Z,13.96
2022-09-15T20:03:01.076Z,13.86
2022-09-15T20:05:29.342Z,13.79
2022-09-15T20:07:59.274Z,13.69
2022-09-15T20:10:27.490Z,13.65
2022-09-15T20:12:55.481Z,13.68
2022-09-15T20:15:24.781Z,13.62
2022-09-15T20:17:52.640Z,13.66
2022-09-15T20:20:22.177Z,13.61
2022-09-15T20:22:50.307Z,13.62
2022-09-15T20:25:18.449Z,13.68
2022-09-15T20:27:47.627Z,13.72
2022-09-15T20:30:15.578Z,13.66
2022-09-15T20:32:43.809Z,13.62
2022-09-15T20:35:11.790Z,13.53
2022-09-15T20:37:41.992Z,13.43
2022-09-15T20:40:10.456Z,13.33
2022-09-15T20:42:38.588Z,13.20
2022-09-15T20:45:07.821Z,13.13
2022-09-15T20:47:35.818Z,13.07
2022-09-15T20:50:03.991Z,12.97
2022-09-15T20:52:37.444Z,12.93
2022-09-15T20:55:09.189Z,12.89
2022-09-15T20:57:37.404Z,12.91
2022-09-15T21:00:09.243Z,12.85
2022-09-15T21:02:38.059Z,12.95
2022-09-15T21:05:06.477Z,13.06
2022-09-15T21:07:34.532Z,13.07
2022-09-15T21:10:02.508Z,13.13
2022-09-15T21:12:33.848Z,13.05
2022-09-15T21:15:03.300Z,13.03
2022-09-15T21:17:31.253Z,13.00
2022-09-15T21:19:59.203Z,13.00
2022-09-15T21:22:27.102Z,12.95
2022-09-15T21:24:55.054Z,13.03
2022-09-15T21:27:29.070Z,13.00
2022-09-15T21:29:59.115Z,12.96
2022-09-15T21:32:27.043Z,12.96
2022-09-15T21:34:56.093Z,12.95
2022-09-15T21:37:27.992Z,12.84
2022-09-15T21:39:56.015Z,12.78
2022-09-15T21:42:24.091Z,12.75
2022-09-15T21:44:52.441Z,12.74
2022-09-15T21:47:21.838Z,12.72
2022-09-15T21:49:51.791Z,12.75
2022-09-15T21:52:19.708Z,12.72
2022-09-15T21:54:47.901Z,12.69
2022-09-15T21:57:16.143Z,12.67
2022-09-15T21:59:44.332Z,12.68
2022-09-15T22:02:12.531Z,12.60
2022-09-15T22:04:42.180Z,12.58
2022-09-15T22:07:11.118Z,12.52
2022-09-15T22:09:40.122Z,12.51
2022-09-15T22:12:09.024Z,12.47
2022-09-15T22:14:37.155Z,12.38
2022-09-15T22:17:05.556Z,12.33
2022-09-15T22:19:33.558Z,12.30
2022-09-15T22:22:04.288Z,12.40
2022-09-15T22:24:34.098Z,12.38
2022-09-15T22:27:02.346Z,12.40
2022-09-15T22:29:30.299Z,12.47
2022-09-15T22:31:58.584Z,12.41
2022-09-15T22:34:26.556Z,12.36
2022-09-15T22:36:55.529Z,12.41
2022-09-15T22:39:43.925Z,12.37
2022-09-15T22:42:13.119Z,12.37
2022-09-15T22:44:41.587Z,12.32
2022-09-15T22:47:10.179Z,12.33
2022-09-15T22:49:38.083Z,12.34
2022-09-15T22:52:06.244Z,12.32
2022-09-15T22:54:36.061Z,12.41
2022-09-15T22:57:04.201Z,12.50
2022-09-15T22:59:32.329Z,12.54
2022-09-15T23:02:01.645Z,12.57
2022-09-15T23:04:29.654Z,12.55
2022-09-15T23:06:57.597Z,12.58
2022-09-15T23:09:25.506Z,12.62
2022-09-15T23:11:54.880Z,12.62
2022-09-15T23:14:23.935Z,12.57
2022-09-15T23:16:51.975Z,12.60
2022-09-15T23:19:19.872Z,12.51
2022-09-15T23:21:47.979Z,12.54
2022-09-15T23:24:17.090Z,12.60
2022-09-15T23:26:46.629Z,12.54
2022-09-15T23:29:16.244Z,12.54
2022-09-15T23:31:44.445Z,12.45
2022-09-15T23:34:12.421Z,12.47
2022-09-15T23:36:40.576Z,12.40
2022-09-15T23:39:08.472Z,12.48
2022-09-15T23:41:38.991Z,12.41
2022-09-15T23:44:09.149Z,12.37
2022-09-15T23:46:38.456Z,12.38
2022-09-15T23:49:07.378Z,12.37
2022-09-15T23:51:35.692Z,12.38
2022-09-15T23:54:04.685Z,12.37
2022-09-15T23:56:33.905Z,12.43
2022-09-15T23:59:02.113Z,12.43
